Spadeadam, United Kingdom

11:22 PM GMT on February 22, 2017 (GMT +0000)
South Tynedale | | Change Station

Elev 610 ft 54.92 °N, 2.51 °W | Updated 8 seconds ago

Rain
Rain
38.5 °F
Feels Like 35 °F
N
4.3
Wind Variable Wind from SSW
Gusts 4.9 mph

Today
High -- | Low -- °F
--% Chance of Precip.
Yesterday
High -- | Low -- °F
Precip. -- in
Pressure 29.50 in
Visibility 6.2 miles
Clouds Few 1500 ft
Windchill 35 °F
Dew Point 38 °F
Humidity 99%
Rainfall 0.11 in
Snow Depth Not available.
7:16 AM 5:31 PM
Waning Crescent, 14% visible
METAR EGNT 222250Z 24005KT 9999 FEW015 05/04 Q0999
Pressure 29.50 in
Visibility 6.2 miles
Clouds Few 1500 ft
Windchill 35 °F
Dew Point 38 °F
Humidity 99%
Rainfall 0.11 in
Snow Depth Not available.
7:16 AM 5:31 PM
Waning Crescent, 14% visible
METAR EGNT 222250Z 24005KT 9999 FEW015 05/04 Q0999

Get Your Daily Forecast Email!

Thanks for signing up!

Be on the lookout for a verification email in your inbox.

You'll start receiving the daily forecast at 8 AM.

×

10-Day Weather Forecast

×

Almanac

Astronomy

Feb. 22, 2017 Rise Set
Actual Time
Civil Twilight
Nautical Twilight
Astronomical Twilight
Moon
Length of Visible Light
Length of Day
Tomorrow will be .
, % of the Moon is Illuminated

Today's Extremes

Country Highs Country Lows

Community

WunderPhotos

Upload Photos

1,962,540 photos uploaded!

WunderBlog® & News

Nearby

Air Quality

  Air Quality AQ Index Pollutant
Not available.

Snow Depth

Station Depth Elevation

Earthquake Activity

City Distance Mag. Time & Date
Minimum magnitude displayed is 2.5.

Coastal Water Temperatures

Place Temperature

Stations

Nearby Weather Stations

Station Location Temp. Windchill Dew Point Humidity Wind Precip. Elev Updated Type